createdAt,value
2019-01-28T00:00:29.120Z,952.5
2019-01-28T00:01:30.598Z,952.6
2019-01-28T00:02:34.770Z,952.5
2019-01-28T00:03:36.248Z,952.5
2019-01-28T00:04:37.678Z,952.6
2019-01-28T00:05:39.180Z,952.6
2019-01-28T00:06:40.660Z,952.6
2019-01-28T00:07:42.142Z,952.7
2019-01-28T00:08:43.592Z,952.7
2019-01-28T00:09:45.086Z,952.7
2019-01-28T00:10:46.595Z,952.6
2019-01-28T00:11:48.080Z,952.7
2019-01-28T00:12:50.784Z,952.7
2019-01-28T00:13:52.250Z,952.7
2019-01-28T00:14:53.750Z,952.7
2019-01-28T00:15:57.014Z,952.7
2019-01-28T00:16:58.497Z,952.6
2019-01-28T00:18:01.369Z,952.7
2019-01-28T00:19:02.867Z,952.6
2019-01-28T00:20:04.361Z,952.6
2019-01-28T00:21:06.144Z,952.7
2019-01-28T00:22:07.634Z,952.7
2019-01-28T00:23:09.110Z,952.7
2019-01-28T00:24:10.570Z,952.8
2019-01-28T00:25:12.420Z,952.8
2019-01-28T00:26:13.911Z,952.8
2019-01-28T00:27:15.598Z,952.8
2019-01-28T00:28:17.055Z,952.9
2019-01-28T00:29:18.573Z,952.9
2019-01-28T00:30:20.414Z,952.9
2019-01-28T00:31:22.196Z,952.9
2019-01-28T00:32:23.687Z,952.9
2019-01-28T00:33:25.209Z,952.8
2019-01-28T00:34:26.684Z,953
2019-01-28T00:35:29.635Z,952.9
2019-01-28T00:36:31.298Z,952.9
2019-01-28T00:37:33.014Z,952.9
2019-01-28T00:38:34.513Z,952.9
2019-01-28T00:39:38.385Z,952.9
2019-01-28T00:40:39.853Z,952.9
2019-01-28T00:41:41.592Z,952.9
2019-01-28T00:42:43.179Z,952.8
2019-01-28T00:43:45.767Z,952.9
2019-01-28T00:44:47.242Z,953
2019-01-28T00:45:49.937Z,953
2019-01-28T00:46:51.630Z,953
2019-01-28T00:47:53.117Z,952.9
2019-01-28T00:48:55.169Z,953
2019-01-28T00:49:56.601Z,952.9
2019-01-28T00:51:00.617Z,952.9
2019-01-28T00:52:02.145Z,953
2019-01-28T00:53:08.012Z,953
2019-01-28T00:54:10.308Z,953
2019-01-28T00:55:12.195Z,953
2019-01-28T00:56:15.915Z,953
2019-01-28T00:57:17.425Z,953
2019-01-28T00:58:18.889Z,952.9
2019-01-28T00:59:23.191Z,952.9
2019-01-28T01:00:25.934Z,952.8
2019-01-28T01:01:27.731Z,952.8
2019-01-28T01:02:29.267Z,952.9
2019-01-28T01:03:31.469Z,952.9
2019-01-28T01:04:32.924Z,952.9
2019-01-28T01:05:34.417Z,952.9
2019-01-28T01:06:35.943Z,952.9
2019-01-28T01:07:37.747Z,952.9
2019-01-28T01:08:39.283Z,952.9
2019-01-28T01:09:40.821Z,952.9
2019-01-28T01:10:44.263Z,952.9
2019-01-28T01:11:46.823Z,952.9
2019-01-28T01:12:48.299Z,952.9
2019-01-28T01:13:51.322Z,953
2019-01-28T01:14:53.141Z,953
2019-01-28T01:15:54.587Z,952.9
2019-01-28T01:16:56.031Z,953
2019-01-28T01:18:00.575Z,953
2019-01-28T01:19:03.879Z,953
2019-01-28T01:20:05.304Z,953
2019-01-28T01:21:06.829Z,953
2019-01-28T01:22:09.305Z,953
2019-01-28T01:23:11.335Z,953
2019-01-28T01:24:14.763Z,953.1
2019-01-28T01:25:16.267Z,953
2019-01-28T01:26:17.724Z,953
2019-01-28T01:27:21.375Z,953.1
2019-01-28T01:28:22.908Z,953.1
2019-01-28T01:29:24.349Z,953.1
2019-01-28T01:30:27.902Z,953
2019-01-28T01:31:32.431Z,953
2019-01-28T01:32:36.843Z,953.1
2019-01-28T01:33:38.699Z,953.1
2019-01-28T01:34:40.664Z,953
2019-01-28T01:35:42.126Z,953.1
2019-01-28T01:36:43.582Z,953.1
2019-01-28T01:37:45.063Z,953
2019-01-28T01:38:46.570Z,952.9
2019-01-28T01:39:48.033Z,953
2019-01-28T01:40:49.490Z,953.1
2019-01-28T01:41:52.314Z,953.1
2019-01-28T01:42:54.030Z,953.1
2019-01-28T01:43:55.842Z,953
2019-01-28T01:44:59.460Z,953.1
2019-01-28T01:46:00.898Z,953.2
2019-01-28T01:47:03.934Z,953.2
2019-01-28T01:48:05.388Z,953.2
2019-01-28T01:49:07.147Z,953.1
2019-01-28T01:50:08.606Z,953.1
2019-01-28T01:51:10.054Z,953.2
2019-01-28T01:52:11.580Z,953.1
2019-01-28T01:53:13.028Z,953
2019-01-28T01:54:14.518Z,953.1
2019-01-28T01:55:16.006Z,953.1
2019-01-28T01:56:18.712Z,953.1
2019-01-28T01:57:20.221Z,953.1
2019-01-28T01:58:21.709Z,953
2019-01-28T01:59:23.212Z,953
2019-01-28T02:00:25.662Z,953
2019-01-28T02:01:27.472Z,953
2019-01-28T02:02:34.290Z,953
2019-01-28T02:03:35.757Z,953
2019-01-28T02:04:38.172Z,953
2019-01-28T02:05:39.668Z,953
2019-01-28T02:06:41.408Z,953
2019-01-28T02:07:42.876Z,953
2019-01-28T02:08:45.388Z,953
2019-01-28T02:09:46.860Z,953.1
2019-01-28T02:10:48.384Z,953
2019-01-28T02:11:49.825Z,953
2019-01-28T02:12:51.318Z,953
2019-01-28T02:13:52.757Z,952.9
2019-01-28T02:14:54.254Z,953
2019-01-28T02:15:56.080Z,952.9
2019-01-28T02:17:00.528Z,952.8
2019-01-28T02:18:02.146Z,952.9
2019-01-28T02:19:03.846Z,952.9
2019-01-28T02:20:05.374Z,953.1
2019-01-28T02:21:06.890Z,953.1
2019-01-28T02:22:08.346Z,953
2019-01-28T02:23:11.280Z,953
2019-01-28T02:24:12.724Z,953
2019-01-28T02:25:14.930Z,952.9
2019-01-28T02:26:16.374Z,953.1
2019-01-28T02:27:17.917Z,953
2019-01-28T02:28:19.364Z,953
2019-01-28T02:29:20.853Z,953
2019-01-28T02:30:22.382Z,953
2019-01-28T02:31:23.858Z,953
2019-01-28T02:32:25.378Z,953
2019-01-28T02:33:26.860Z,953
2019-01-28T02:34:28.288Z,952.9
2019-01-28T02:35:29.854Z,953
2019-01-28T02:36:31.343Z,953
2019-01-28T02:37:32.802Z,953
2019-01-28T02:38:34.524Z,953
2019-01-28T02:39:36.124Z,953
2019-01-28T02:40:37.644Z,953
2019-01-28T02:41:39.127Z,952.9
2019-01-28T02:42:40.587Z,952.9
2019-01-28T02:43:42.066Z,952.9
2019-01-28T02:44:43.520Z,952.9
2019-01-28T02:45:45.083Z,953
2019-01-28T02:46:46.539Z,952.9
2019-01-28T02:47:48.255Z,953
2019-01-28T02:48:49.702Z,952.9
2019-01-28T02:49:51.130Z,952.9
2019-01-28T02:50:52.647Z,953
2019-01-28T02:51:54.112Z,952.9
2019-01-28T02:52:55.568Z,953
2019-01-28T02:53:57.037Z,952.9
2019-01-28T02:54:58.557Z,952.9
2019-01-28T02:56:00.048Z,952.9
2019-01-28T02:58:10.989Z,952.8
2019-01-28T02:59:12.528Z,952.8
2019-01-28T03:00:14.518Z,952.9
2019-01-28T03:01:16.153Z,952.7
2019-01-28T03:02:17.799Z,952.9
2019-01-28T03:03:19.449Z,952.9
2019-01-28T03:04:20.973Z,952.7
2019-01-28T03:05:22.479Z,952.8
2019-01-28T03:06:24.076Z,952.7
2019-01-28T03:07:25.647Z,952.7
2019-01-28T03:08:27.633Z,952.8
2019-01-28T03:09:29.194Z,952.7
2019-01-28T03:10:30.788Z,952.7
2019-01-28T03:11:32.351Z,952.8
2019-01-28T03:12:33.851Z,952.9
2019-01-28T03:13:35.400Z,952.8
2019-01-28T03:14:36.983Z,952.8
2019-01-28T03:15:38.527Z,952.9
2019-01-28T03:16:40.053Z,952.9
2019-01-28T03:17:41.539Z,952.9
2019-01-28T03:18:43.039Z,953
2019-01-28T03:19:45.114Z,952.8
2019-01-28T03:20:46.683Z,952.9
2019-01-28T03:21:48.643Z,952.8
2019-01-28T03:22:50.369Z,952.9
2019-01-28T03:23:51.959Z,952.9
2019-01-28T03:24:53.539Z,952.9
2019-01-28T03:25:55.073Z,952.9
2019-01-28T03:26:56.617Z,952.9
2019-01-28T03:27:58.217Z,952.8
2019-01-28T03:28:59.760Z,952.9
2019-01-28T03:30:01.283Z,952.9
2019-01-28T03:31:03.103Z,952.8
2019-01-28T03:32:04.689Z,952.7
2019-01-28T03:33:06.262Z,953
2019-01-28T03:34:07.841Z,952.8
2019-01-28T03:35:09.418Z,952.8
2019-01-28T03:36:10.991Z,952.7
2019-01-28T03:37:13.183Z,952.8
2019-01-28T03:38:14.719Z,952.7
2019-01-28T03:39:17.313Z,952.7
2019-01-28T03:40:18.891Z,952.9
2019-01-28T03:41:20.495Z,952.8
2019-01-28T03:42:22.078Z,952.8
2019-01-28T03:43:23.703Z,952.8
2019-01-28T03:44:25.285Z,952.8
2019-01-28T03:45:26.821Z,952.9
2019-01-28T03:46:28.378Z,952.7
2019-01-28T03:47:29.933Z,952.8
2019-01-28T03:48:31.554Z,952.8
2019-01-28T03:49:33.191Z,952.8
2019-01-28T03:50:34.856Z,952.6
2019-01-28T03:51:36.909Z,952.8
2019-01-28T03:52:38.572Z,952.8
2019-01-28T03:53:40.093Z,952.8
2019-01-28T03:54:41.622Z,952.7
2019-01-28T03:55:43.217Z,952.8
2019-01-28T03:56:44.679Z,952.7
2019-01-28T03:57:47.340Z,952.7
2019-01-28T03:58:49.102Z,952.6
2019-01-28T03:59:50.669Z,952.6
2019-01-28T04:00:52.230Z,952.6
2019-01-28T04:01:54.155Z,952.6
2019-01-28T04:02:55.887Z,952.6
2019-01-28T04:03:57.512Z,952.5
2019-01-28T04:04:59.146Z,952.5
2019-01-28T04:06:00.682Z,952.5
2019-01-28T04:07:02.313Z,952.6
2019-01-28T04:08:03.916Z,952.5
2019-01-28T04:09:05.562Z,952.5
2019-01-28T04:10:07.102Z,952.3
2019-01-28T04:11:08.617Z,952.4
2019-01-28T04:12:10.143Z,952.3
2019-01-28T04:13:11.754Z,952.3
2019-01-28T04:14:14.656Z,952.4
2019-01-28T04:15:16.236Z,952.4
2019-01-28T04:16:17.754Z,952.3
2019-01-28T04:17:19.282Z,952.2
2019-01-28T04:18:20.993Z,952.1
2019-01-28T04:19:22.638Z,952.2
2019-01-28T04:20:24.194Z,952.2
2019-01-28T04:21:25.706Z,952.2
2019-01-28T04:22:27.230Z,952.2
2019-01-28T04:23:29.126Z,952.3
2019-01-28T04:24:30.687Z,952.2
2019-01-28T04:25:32.204Z,952.4
2019-01-28T04:26:33.734Z,952.3
2019-01-28T04:27:35.236Z,952.2
2019-01-28T04:28:36.797Z,952.2
2019-01-28T04:29:38.328Z,952.3
2019-01-28T04:30:39.960Z,952.3
2019-01-28T04:31:41.521Z,952.2
2019-01-28T04:32:43.154Z,952.3
2019-01-28T04:33:44.703Z,952.3
2019-01-28T04:34:46.274Z,952.2
2019-01-28T04:35:47.806Z,952.3
2019-01-28T04:36:51.704Z,952.1
2019-01-28T04:37:53.219Z,952.1
2019-01-28T04:38:57.012Z,952.2
2019-01-28T04:39:58.659Z,952.3
2019-01-28T04:41:00.150Z,952.3
2019-01-28T04:42:01.664Z,952.1
2019-01-28T04:43:03.207Z,952.2
2019-01-28T04:44:04.913Z,952
2019-01-28T04:45:06.524Z,951.9
2019-01-28T04:46:08.197Z,951.9
2019-01-28T04:47:09.702Z,951.9
2019-01-28T04:48:11.283Z,951.9
2019-01-28T04:49:12.931Z,951.9
2019-01-28T04:50:14.433Z,951.9
2019-01-28T04:51:16.097Z,951.9
2019-01-28T04:52:17.756Z,951.9
2019-01-28T04:53:19.407Z,952
2019-01-28T04:54:21.434Z,952
2019-01-28T04:55:23.111Z,951.9
2019-01-28T04:56:24.752Z,951.8
2019-01-28T04:57:26.316Z,952
2019-01-28T04:58:27.873Z,951.5
2019-01-28T04:59:29.561Z,951.9
2019-01-28T05:00:33.606Z,951.9
2019-01-28T05:01:37.556Z,951.8
2019-01-28T05:02:39.919Z,951.8
2019-01-28T05:03:41.965Z,951.5
2019-01-28T05:04:43.506Z,951.8
2019-01-28T05:05:45.054Z,951.8
2019-01-28T05:06:46.640Z,951.8
2019-01-28T05:07:48.221Z,951.8
2019-01-28T05:08:49.781Z,951.7
2019-01-28T05:09:51.405Z,951.8
2019-01-28T05:10:53.006Z,951.7
2019-01-28T05:11:54.653Z,951.7
2019-01-28T05:12:56.211Z,951.8
2019-01-28T05:13:57.833Z,951.8
2019-01-28T05:14:59.436Z,951.7
2019-01-28T05:16:00.990Z,951.7
2019-01-28T05:17:02.539Z,951.8
2019-01-28T05:18:04.373Z,951.7
2019-01-28T05:19:05.969Z,951.7
2019-01-28T05:20:07.575Z,951.7
2019-01-28T05:21:11.530Z,951.6
2019-01-28T05:22:13.061Z,951.7
2019-01-28T05:23:14.874Z,951.7
2019-01-28T05:24:16.433Z,951.5
2019-01-28T05:25:18.447Z,951.6
2019-01-28T05:26:19.979Z,951.7
2019-01-28T05:27:21.544Z,951.6
2019-01-28T05:28:23.058Z,951.5
2019-01-28T05:29:24.627Z,951.6
2019-01-28T05:30:26.193Z,951.5
2019-01-28T05:31:27.796Z,951.7
2019-01-28T05:32:29.331Z,951.4
2019-01-28T05:33:30.823Z,951.5
2019-01-28T05:34:32.373Z,951.6
2019-01-28T05:35:33.947Z,951.6
2019-01-28T05:36:35.531Z,951.6
2019-01-28T05:37:37.254Z,951.6
2019-01-28T05:38:39.717Z,951.5
2019-01-28T05:39:41.578Z,951.5
2019-01-28T05:40:43.283Z,951.5
2019-01-28T05:41:44.877Z,951.5
2019-01-28T05:42:46.420Z,951.4
2019-01-28T05:43:47.923Z,951.5
2019-01-28T05:44:51.337Z,951.5
2019-01-28T05:45:52.924Z,951.5
2019-01-28T05:46:54.434Z,951.4
2019-01-28T05:47:55.983Z,951.4
2019-01-28T05:48:57.581Z,951.5
2019-01-28T05:49:59.176Z,951.4
2019-01-28T05:51:01.149Z,951.4
2019-01-28T05:52:02.799Z,951.4
2019-01-28T05:53:04.383Z,951.5
2019-01-28T05:54:05.915Z,951.5
2019-01-28T05:55:08.645Z,951.5
2019-01-28T05:56:10.614Z,951.5
2019-01-28T05:57:12.113Z,951.6
2019-01-28T05:58:13.662Z,951.6
2019-01-28T05:59:16.182Z,951.5
2019-01-28T06:00:17.708Z,951.4
2019-01-28T06:01:19.323Z,951.5
2019-01-28T06:02:22.995Z,951.5
2019-01-28T06:03:24.549Z,951.5
2019-01-28T06:04:26.105Z,951.6
2019-01-28T06:05:27.626Z,951.5
2019-01-28T06:06:29.279Z,951.5
2019-01-28T06:07:30.822Z,951.6
2019-01-28T06:08:32.762Z,951.6
2019-01-28T06:09:34.322Z,951.6
2019-01-28T06:10:35.862Z,951.6
2019-01-28T06:11:39.960Z,951.5
2019-01-28T06:12:41.610Z,951.5
2019-01-28T06:13:43.187Z,951.5
2019-01-28T06:14:44.750Z,951.5
2019-01-28T06:15:46.374Z,951.4
2019-01-28T06:16:48.014Z,951.5
2019-01-28T06:17:49.640Z,951.5
2019-01-28T06:18:51.264Z,951.6
2019-01-28T06:19:52.948Z,951.3
2019-01-28T06:20:54.552Z,951.5
2019-01-28T06:21:56.285Z,951.6
2019-01-28T06:22:57.920Z,951.7
2019-01-28T06:23:59.506Z,951.5
2019-01-28T06:25:01.100Z,951.7
2019-01-28T06:26:02.640Z,951.6
2019-01-28T06:27:04.726Z,951.6
2019-01-28T06:28:06.316Z,951.6
2019-01-28T06:29:07.830Z,951.6
2019-01-28T06:30:09.382Z,951.6
2019-01-28T06:31:10.952Z,951.6
2019-01-28T06:32:13.016Z,951.5
2019-01-28T06:33:14.647Z,951.5
2019-01-28T06:34:16.338Z,951.6
2019-01-28T06:35:18.266Z,951.5
2019-01-28T06:36:19.898Z,951.6
2019-01-28T06:37:21.527Z,951.7
2019-01-28T06:38:25.720Z,951.7
2019-01-28T06:39:28.278Z,951.7
2019-01-28T06:40:29.868Z,951.7
2019-01-28T06:41:32.517Z,951.7
2019-01-28T06:42:34.169Z,951.8
2019-01-28T06:43:35.860Z,952.1
2019-01-28T06:44:37.726Z,952
2019-01-28T06:45:41.729Z,952
2019-01-28T06:46:43.338Z,952.1
2019-01-28T06:47:48.004Z,951.9
2019-01-28T06:48:49.564Z,951.9
2019-01-28T06:49:51.121Z,951.9
2019-01-28T06:50:52.865Z,951.7
2019-01-28T06:51:54.803Z,951.9
2019-01-28T06:52:56.641Z,951.7
2019-01-28T06:55:38.135Z,951.9
2019-01-28T06:58:43.685Z,951.9
2019-01-28T06:59:46.371Z,951.9
2019-01-28T07:00:47.811Z,951.9
2019-01-28T07:01:51.205Z,951.9
2019-01-28T07:02:52.864Z,951.9
2019-01-28T07:03:54.389Z,951.9
2019-01-28T07:05:03.009Z,951.9
2019-01-28T07:06:04.487Z,951.9
2019-01-28T07:07:05.979Z,951.9
2019-01-28T07:08:07.531Z,951.8
2019-01-28T07:09:09.063Z,952
2019-01-28T07:10:10.720Z,952
2019-01-28T07:11:12.193Z,951.9
2019-01-28T07:12:13.639Z,952
2019-01-28T07:13:17.589Z,952.1
2019-01-28T07:14:19.241Z,952.1
2019-01-28T07:15:20.741Z,952
2019-01-28T07:16:22.367Z,952.1
2019-01-28T07:17:24.063Z,952
2019-01-28T07:18:25.729Z,952
2019-01-28T07:19:31.322Z,951.9
2019-01-28T07:20:32.923Z,952
2019-01-28T07:21:34.511Z,952
2019-01-28T07:22:36.027Z,952
2019-01-28T07:23:37.941Z,952
2019-01-28T07:24:39.433Z,952
2019-01-28T07:25:40.902Z,952
2019-01-28T07:26:45.649Z,951.8
2019-01-28T07:27:47.292Z,951.9
2019-01-28T07:28:48.923Z,952
2019-01-28T07:29:50.577Z,952.1
2019-01-28T07:30:52.108Z,952.2
2019-01-28T07:31:53.676Z,952.2
2019-01-28T07:32:55.311Z,952.1
2019-01-28T07:33:56.827Z,952.2
2019-01-28T07:34:58.649Z,952.3
2019-01-28T07:36:02.520Z,952.2
2019-01-28T07:37:04.009Z,952.3
2019-01-28T07:38:05.590Z,952.3
2019-01-28T07:39:07.132Z,952.3
2019-01-28T07:40:08.768Z,952.3
2019-01-28T07:41:12.937Z,952.4
2019-01-28T07:42:14.522Z,952.3
2019-01-28T07:43:16.081Z,952.3
2019-01-28T07:44:17.621Z,952.2
2019-01-28T07:45:19.185Z,952.2
2019-01-28T07:46:20.660Z,952.3
2019-01-28T07:47:22.428Z,952.3
2019-01-28T07:48:26.305Z,952.2
2019-01-28T07:49:27.758Z,952.3
2019-01-28T07:50:29.445Z,952.2
2019-01-28T07:51:32.933Z,952.4
2019-01-28T07:52:36.695Z,952.3
2019-01-28T07:53:39.555Z,952.3
2019-01-28T07:54:41.268Z,952.2
2019-01-28T07:55:42.771Z,952.1
2019-01-28T07:56:44.420Z,952.2
2019-01-28T07:57:45.899Z,952.1
2019-01-28T07:58:47.760Z,952.2
2019-01-28T07:59:49.729Z,952.2
2019-01-28T08:00:51.268Z,952.3
2019-01-28T08:01:52.744Z,952.2
2019-01-28T08:02:54.192Z,952.2
2019-01-28T08:03:55.719Z,952.2
2019-01-28T08:05:01.595Z,952.2
2019-01-28T08:06:03.326Z,952.2
2019-01-28T08:07:07.006Z,952.2
2019-01-28T08:08:08.660Z,952.1
2019-01-28T08:09:10.307Z,952
2019-01-28T08:10:11.812Z,952.1
2019-01-28T08:11:13.282Z,952.1
2019-01-28T08:12:14.817Z,951.9
2019-01-28T08:13:16.314Z,952
2019-01-28T08:14:17.751Z,952.1
2019-01-28T08:15:19.223Z,952
2019-01-28T08:16:20.751Z,952.1
2019-01-28T08:17:22.222Z,952.1
2019-01-28T08:18:24.918Z,952
2019-01-28T08:19:26.461Z,952
2019-01-28T08:20:27.992Z,951.9
2019-01-28T08:21:29.513Z,952
2019-01-28T08:22:31.010Z,951.9
2019-01-28T08:23:32.482Z,952
2019-01-28T08:24:33.980Z,952
2019-01-28T08:25:36.493Z,951.9
2019-01-28T08:26:38.022Z,951.9
2019-01-28T08:27:39.502Z,951.9
2019-01-28T08:28:43.122Z,951.9
2019-01-28T08:29:44.790Z,951.9
2019-01-28T08:30:46.287Z,951.9
2019-01-28T08:31:47.837Z,951.9
2019-01-28T08:32:49.313Z,951.9
2019-01-28T08:33:51.443Z,951.9
2019-01-28T08:34:56.053Z,951.9
2019-01-28T08:35:57.622Z,952
2019-01-28T08:36:59.145Z,952
2019-01-28T08:38:00.630Z,952.1
2019-01-28T08:39:02.402Z,952
2019-01-28T08:40:03.852Z,952
2019-01-28T08:41:05.346Z,952
2019-01-28T08:42:06.857Z,952
2019-01-28T08:43:08.566Z,952
2019-01-28T08:44:17.280Z,952
2019-01-28T08:45:19.322Z,952
2019-01-28T08:46:20.997Z,952
2019-01-28T08:47:22.639Z,952
2019-01-28T08:48:28.282Z,951.9
2019-01-28T08:49:30.127Z,952
2019-01-28T08:50:31.782Z,952
2019-01-28T08:51:33.333Z,951.9
2019-01-28T08:52:34.828Z,952
2019-01-28T08:53:36.714Z,952
2019-01-28T08:54:39.693Z,952
2019-01-28T08:55:42.456Z,951.9
2019-01-28T08:56:48.533Z,952
2019-01-28T08:57:50.246Z,952
2019-01-28T08:58:51.897Z,952
2019-01-28T08:59:53.697Z,952
2019-01-28T09:00:55.156Z,952
2019-01-28T09:01:56.592Z,952
2019-01-28T09:02:58.623Z,952
2019-01-28T09:04:06.909Z,951.9
2019-01-28T09:05:08.372Z,952
2019-01-28T09:06:10.776Z,951.9
2019-01-28T09:07:12.241Z,951.9
2019-01-28T09:08:14.827Z,951.9
2019-01-28T09:09:16.280Z,951.9
2019-01-28T09:10:18.183Z,951.9
2019-01-28T09:11:19.741Z,951.9
2019-01-28T09:12:21.382Z,951.9
2019-01-28T09:13:24.289Z,951.9
2019-01-28T09:14:26.000Z,951.9
2019-01-28T09:15:29.776Z,952
2019-01-28T09:16:31.533Z,952
2019-01-28T09:17:33.393Z,952
2019-01-28T09:18:35.413Z,952.1
2019-01-28T09:19:36.886Z,952
2019-01-28T09:20:38.728Z,952
2019-01-28T09:21:45.021Z,952
2019-01-28T09:22:47.517Z,951.8
2019-01-28T09:23:49.225Z,951.9
2019-01-28T09:24:50.851Z,951.9
2019-01-28T09:25:52.891Z,951.9
2019-01-28T09:26:54.659Z,951.9
2019-01-28T09:27:58.651Z,951.9
2019-01-28T09:29:00.595Z,952
2019-01-28T09:30:02.393Z,952
2019-01-28T09:31:03.902Z,952.1
2019-01-28T09:32:05.538Z,952
2019-01-28T09:33:07.003Z,952.1
2019-01-28T09:34:08.619Z,952.1
2019-01-28T09:35:10.508Z,952.1
2019-01-28T09:36:14.522Z,952.2
2019-01-28T09:37:15.968Z,952.2
2019-01-28T09:38:17.404Z,952.2
2019-01-28T09:39:19.109Z,952.3
2019-01-28T09:40:20.646Z,952.2
2019-01-28T09:41:22.484Z,952.1
2019-01-28T09:42:31.574Z,952.1
2019-01-28T09:43:33.101Z,952.2
2019-01-28T09:44:35.017Z,952.3
2019-01-28T09:45:36.567Z,952.3
2019-01-28T09:46:38.716Z,952.4
2019-01-28T09:47:40.369Z,952.3
2019-01-28T09:48:48.533Z,952.3
2019-01-28T09:49:50.764Z,952.4
2019-01-28T09:50:56.814Z,952.4
2019-01-28T09:52:01.544Z,952.2
2019-01-28T09:53:04.541Z,952.4
2019-01-28T09:54:07.586Z,952.4
2019-01-28T09:55:09.996Z,952.3
2019-01-28T09:56:12.409Z,952.3
2019-01-28T09:57:14.427Z,952.4
2019-01-28T09:58:16.171Z,952.3
2019-01-28T09:59:21.903Z,952.4
2019-01-28T10:00:23.424Z,952.4
2019-01-28T10:01:25.833Z,952.3
2019-01-28T10:02:28.249Z,952.4
2019-01-28T10:03:30.083Z,952.3
2019-01-28T10:04:31.624Z,952.3
2019-01-28T10:05:33.502Z,952.3
2019-01-28T10:06:35.714Z,952.3
2019-01-28T10:07:37.256Z,952.3
2019-01-28T10:08:41.740Z,952.3
2019-01-28T10:09:45.497Z,952.3
2019-01-28T10:10:53.832Z,952.3
2019-01-28T10:11:57.152Z,952.4
2019-01-28T10:12:59.163Z,952.4
2019-01-28T10:14:02.070Z,952.5
2019-01-28T10:15:05.144Z,952.5
2019-01-28T10:16:10.933Z,952.6
2019-01-28T10:17:14.546Z,952.4
2019-01-28T10:18:17.230Z,952.5
2019-01-28T10:19:20.100Z,952.5
2019-01-28T10:20:23.664Z,952.5
2019-01-28T10:21:28.858Z,952.5
2019-01-28T10:22:36.352Z,952.5
2019-01-28T10:23:39.993Z,952.4
2019-01-28T10:24:41.624Z,952.4
2019-01-28T10:25:47.248Z,952.4
2019-01-28T10:26:49.368Z,952.4
2019-01-28T10:27:50.968Z,952.4
2019-01-28T10:28:54.298Z,952.3
2019-01-28T10:29:59.622Z,952.3
2019-01-28T10:31:02.352Z,952.4
2019-01-28T10:32:04.326Z,952.3
2019-01-28T10:33:07.405Z,952.4
2019-01-28T10:34:12.716Z,952.3
2019-01-28T10:35:17.430Z,952.3
2019-01-28T10:36:24.040Z,952.4
2019-01-28T10:37:27.274Z,952.3
2019-01-28T10:38:30.150Z,952.4
2019-01-28T10:39:32.427Z,952.4
2019-01-28T10:40:34.064Z,952.4
2019-01-28T10:41:35.514Z,952.4
2019-01-28T10:42:37.349Z,952.3
2019-01-28T10:43:39.473Z,952.3
2019-01-28T10:44:41.247Z,952.4
2019-01-28T10:45:43.132Z,952.3
2019-01-28T10:46:45.553Z,952.3
2019-01-28T10:47:47.518Z,952.4
2019-01-28T10:48:55.170Z,952.4
2019-01-28T10:49:58.096Z,952.2
2019-01-28T10:51:00.496Z,952.4
2019-01-28T10:52:05.054Z,952.4
2019-01-28T10:53:06.614Z,952.4
2019-01-28T10:54:08.086Z,952.4
2019-01-28T10:55:09.744Z,952.4
2019-01-28T10:56:11.222Z,952.3
2019-01-28T10:57:13.137Z,952.4
2019-01-28T10:58:17.615Z,952.3
2019-01-28T10:59:21.544Z,952.3
2019-01-28T11:00:23.357Z,952.3
2019-01-28T11:01:27.884Z,952.3
2019-01-28T11:02:30.986Z,952.2
2019-01-28T11:03:38.053Z,952.3
2019-01-28T11:04:39.975Z,952.3
2019-01-28T11:05:41.435Z,952.3
2019-01-28T11:06:43.414Z,952.3
2019-01-28T11:07:52.425Z,952.3
2019-01-28T11:08:54.479Z,952.3
2019-01-28T11:09:58.085Z,952.3
2019-01-28T11:10:59.628Z,952.2
2019-01-28T11:12:01.113Z,952.2
2019-01-28T11:13:06.764Z,952.2
2019-01-28T11:14:09.981Z,952.2
2019-01-28T11:15:20.855Z,952.2
2019-01-28T11:16:26.969Z,952.1
2019-01-28T11:17:35.014Z,952.2
2019-01-28T11:18:46.944Z,952.2
2019-01-28T11:19:57.713Z,952.2
2019-01-28T11:21:02.114Z,952.2
2019-01-28T11:22:04.861Z,952.2
2019-01-28T11:23:07.626Z,952.2
2019-01-28T11:24:11.025Z,952.1
2019-01-28T11:25:15.511Z,952.1
2019-01-28T11:26:19.342Z,952.2
2019-01-28T11:27:25.947Z,952.2
2019-01-28T11:33:55.784Z,952.2
2019-01-28T11:34:58.568Z,952.2
2019-01-28T11:36:06.210Z,952.1
2019-01-28T11:37:07.783Z,952.2
2019-01-28T11:38:11.412Z,952.2
2019-01-28T11:39:13.091Z,952.2
2019-01-28T11:40:14.725Z,952.2
2019-01-28T11:41:27.004Z,952.2
2019-01-28T11:42:28.814Z,952.2
2019-01-28T11:43:31.030Z,952
2019-01-28T11:44:32.905Z,952.1
2019-01-28T11:45:34.841Z,952.2
2019-01-28T11:46:36.490Z,952.1
2019-01-28T11:47:40.643Z,952.1
2019-01-28T11:48:42.529Z,952.2
2019-01-28T11:49:46.566Z,952.1
2019-01-28T11:50:56.621Z,952.1
2019-01-28T11:51:58.053Z,952.1
2019-01-28T11:52:59.581Z,952.1
2019-01-28T11:54:01.235Z,952.1
2019-01-28T11:55:03.254Z,952.1
2019-01-28T11:56:07.393Z,952.1
2019-01-28T11:57:09.283Z,952.1
2019-01-28T11:58:10.937Z,952.1
2019-01-28T11:59:12.478Z,952.1
2019-01-28T12:00:15.221Z,952.2
2019-01-28T12:01:17.939Z,952.2
2019-01-28T12:02:19.634Z,952.2
2019-01-28T12:03:21.419Z,952.3
2019-01-28T12:04:23.082Z,952.2
2019-01-28T12:05:24.571Z,952.3
2019-01-28T12:06:26.347Z,952.3
2019-01-28T12:07:27.976Z,952.3
2019-01-28T12:08:29.944Z,952.3
2019-01-28T12:09:31.940Z,952.3
2019-01-28T12:10:33.841Z,952.4
2019-01-28T12:11:36.307Z,952.5
2019-01-28T12:12:39.321Z,952.4
2019-01-28T12:13:40.803Z,952.5
2019-01-28T12:14:42.382Z,952.5
2019-01-28T12:15:45.286Z,952.6
2019-01-28T12:16:50.462Z,952.6
2019-01-28T12:17:52.524Z,952.6
2019-01-28T12:18:54.004Z,952.6
2019-01-28T12:19:55.472Z,952.6
2019-01-28T12:20:56.952Z,952.6
2019-01-28T12:22:02.126Z,952.7
2019-01-28T12:23:03.605Z,952.6
2019-01-28T12:24:05.083Z,952.6
2019-01-28T12:25:07.624Z,952.6
2019-01-28T12:26:09.145Z,952.8
2019-01-28T12:27:10.624Z,952.7
2019-01-28T12:28:14.909Z,952.9
2019-01-28T12:29:16.710Z,952.8
2019-01-28T12:30:18.183Z,952.8
2019-01-28T12:31:19.758Z,952.8
2019-01-28T12:32:21.612Z,952.7
2019-01-28T12:33:25.649Z,952.6
2019-01-28T12:34:27.248Z,952.6
2019-01-28T12:35:28.708Z,952.7
2019-01-28T12:36:30.758Z,952.7
2019-01-28T12:37:32.333Z,952.6
2019-01-28T12:38:33.842Z,952.7
2019-01-28T12:39:41.626Z,952.8
2019-01-28T12:40:43.172Z,952.8
2019-01-28T12:41:44.716Z,952.7
2019-01-28T12:42:46.357Z,952.6
2019-01-28T12:43:48.000Z,952.7
2019-01-28T12:44:50.442Z,952.7
2019-01-28T12:45:51.933Z,952.7
2019-01-28T12:46:53.440Z,952.7
2019-01-28T12:47:55.808Z,952.7
2019-01-28T12:48:57.451Z,952.7
2019-01-28T12:49:59.380Z,952.7
2019-01-28T12:51:00.850Z,952.7
2019-01-28T12:52:02.705Z,952.6
2019-01-28T12:53:04.420Z,952.7
2019-01-28T12:54:08.507Z,952.7
2019-01-28T12:55:10.093Z,952.7
2019-01-28T12:56:11.761Z,952.8
2019-01-28T12:57:13.454Z,952.8
2019-01-28T12:58:14.941Z,952.8
2019-01-28T12:59:18.600Z,952.8
2019-01-28T13:00:22.936Z,952.8
2019-01-28T13:01:24.971Z,952.8
2019-01-28T13:02:26.854Z,952.9
2019-01-28T13:03:40.930Z,952.8
2019-01-28T13:04:46.993Z,952.9
2019-01-28T13:05:48.805Z,952.9
2019-01-28T13:06:51.802Z,952.8
2019-01-28T13:07:55.375Z,952.9
2019-01-28T13:08:59.609Z,952.9
2019-01-28T13:10:02.581Z,952.9
2019-01-28T13:11:04.471Z,952.9
2019-01-28T13:12:09.409Z,952.9
2019-01-28T13:13:12.145Z,953
2019-01-28T13:14:13.693Z,953
2019-01-28T13:15:15.383Z,953
2019-01-28T13:16:17.269Z,953
2019-01-28T13:17:20.184Z,953
2019-01-28T13:18:22.066Z,952.9
2019-01-28T13:19:30.870Z,953
2019-01-28T13:20:35.136Z,953
2019-01-28T13:21:36.793Z,952.9
2019-01-28T13:22:45.813Z,952.9
2019-01-28T13:23:49.024Z,953
2019-01-28T13:24:52.329Z,953
2019-01-28T13:25:53.861Z,953
2019-01-28T13:26:56.207Z,953.1
2019-01-28T13:28:00.626Z,953.1
2019-01-28T13:29:04.257Z,953.2
2019-01-28T13:30:06.401Z,953.2
2019-01-28T13:31:08.352Z,953.2
2019-01-28T13:32:13.409Z,953.2
2019-01-28T13:33:16.228Z,953.3
2019-01-28T13:34:18.485Z,953.3
2019-01-28T13:35:20.387Z,953.3
2019-01-28T13:36:22.453Z,953.3
2019-01-28T13:37:24.213Z,953.3
2019-01-28T13:38:34.214Z,953.3
2019-01-28T13:39:40.221Z,953.4
2019-01-28T13:40:42.535Z,953.4
2019-01-28T13:41:47.697Z,953.4